createdAt,value
2022-09-12T00:03:55.930Z,100163.14
2022-09-12T00:09:02.054Z,100168.98
2022-09-12T00:14:05.344Z,100162.27
2022-09-12T00:19:08.437Z,100165.98
2022-09-12T00:24:11.687Z,100163.86
2022-09-12T00:29:21.824Z,100161.41
2022-09-12T00:34:24.519Z,100168.05
2022-09-12T00:39:27.302Z,100165.91
2022-09-12T00:44:29.908Z,100169.48
2022-09-12T00:49:51.672Z,100168.04
2022-09-12T00:55:20.267Z,100166.28
2022-09-12T01:00:24.882Z,100174.41
2022-09-12T01:05:28.952Z,100180.27
2022-09-12T01:10:32.576Z,100181.98
2022-09-12T01:15:37.705Z,100183.95
2022-09-12T01:21:16.037Z,100186.88
2022-09-12T01:26:49.521Z,100189.26
2022-09-12T01:32:04.545Z,100187.79
2022-09-12T01:37:18.013Z,100190.81
2022-09-12T01:42:48.378Z,100192.59
2022-09-12T01:48:00.571Z,100198.66
2022-09-12T01:53:09.645Z,100199.63
2022-09-12T01:58:26.389Z,100204.27
2022-09-12T02:03:38.119Z,100209.11
2022-09-12T02:08:45.597Z,100204.04
2022-09-12T02:14:23.305Z,100200.66
2022-09-12T02:19:34.103Z,100198.79
2022-09-12T02:24:39.538Z,100200.80
2022-09-12T02:29:44.658Z,100203.54
2022-09-12T02:35:02.224Z,100206.98
2022-09-12T02:40:07.177Z,100208.45
2022-09-12T02:45:10.484Z,100207.42
2022-09-12T02:50:13.277Z,100208.14
2022-09-12T02:55:16.574Z,100204.15
2022-09-12T03:00:19.240Z,100214.39
2022-09-12T03:05:35.373Z,100216.90
2022-09-12T03:10:43.148Z,100220.13
2022-09-12T03:16:19.706Z,100221.65
2022-09-12T03:21:33.503Z,100224.95
2022-09-12T03:26:59.137Z,100232.20
2022-09-12T03:32:02.258Z,100238.27
2022-09-12T03:37:05.405Z,100243.17
2022-09-12T03:42:08.166Z,100254.42
2022-09-12T03:47:11.479Z,100257.91
2022-09-12T03:52:14.692Z,100262.71
2022-09-12T03:57:17.446Z,100262.63
2022-09-12T04:02:20.236Z,100261.33
2022-09-12T04:07:22.985Z,100265.15
2022-09-12T04:12:26.186Z,100264.46
2022-09-12T04:17:28.956Z,100263.92
2022-09-12T04:22:32.809Z,100271.17
2022-09-12T04:27:35.666Z,100275.23
2022-09-12T04:32:38.405Z,100277.66
2022-09-12T04:37:41.139Z,100279.54
2022-09-12T04:42:43.807Z,100286.79
2022-09-12T04:47:46.839Z,100291.08
2022-09-12T04:52:51.780Z,100299.28
2022-09-12T04:57:54.654Z,100304.77
2022-09-12T05:02:57.466Z,100305.62
2022-09-12T05:08:00.227Z,100310.73
2022-09-12T05:13:02.880Z,100316.46
2022-09-12T05:18:06.368Z,100317.41
2022-09-12T05:23:09.104Z,100318.58
2022-09-12T05:28:12.195Z,100319.45
2022-09-12T05:33:15.464Z,100317.11
2022-09-12T05:38:18.295Z,100323.63
2022-09-12T05:43:21.126Z,100322.90
2022-09-12T05:48:24.325Z,100329.52
2022-09-12T05:53:29.265Z,100331.04
2022-09-12T05:58:33.204Z,100330.58
2022-09-12T06:03:44.646Z,100327.44
2022-09-12T06:08:50.019Z,100328.61
2022-09-12T06:13:52.990Z,100327.94
2022-09-12T06:18:58.685Z,100330.45
2022-09-12T06:24:02.086Z,100329.80
2022-09-12T06:29:04.997Z,100329.33
2022-09-12T06:34:10.537Z,100331.77
2022-09-12T06:39:18.935Z,100335.94
2022-09-12T06:44:22.487Z,100338.12
2022-09-12T06:49:25.213Z,100344.92
2022-09-12T06:54:27.909Z,100345.70
2022-09-12T06:59:30.659Z,100343.20
2022-09-12T07:04:36.772Z,100351.66
2022-09-12T07:09:39.477Z,100352.98
2022-09-12T07:14:42.117Z,100352.00
2022-09-12T07:19:44.868Z,100354.08
2022-09-12T07:24:47.975Z,100361.64
2022-09-12T07:29:50.676Z,100370.46
2022-09-12T07:34:55.609Z,100378.55
2022-09-12T07:39:59.351Z,100389.61
2022-09-12T07:45:02.052Z,100391.14
2022-09-12T07:50:06.784Z,100395.46
2022-09-12T07:55:09.621Z,100402.67
2022-09-12T08:00:12.990Z,100407.17
2022-09-12T08:05:15.731Z,100410.88
2022-09-12T08:10:18.445Z,100410.35
2022-09-12T08:15:21.736Z,100417.13
2022-09-12T08:20:28.259Z,100417.54
2022-09-12T08:25:31.175Z,100419.13
2022-09-12T08:30:34.025Z,100417.23
2022-09-12T08:35:36.747Z,100418.76
2022-09-12T08:41:08.931Z,100419.77
2022-09-12T08:46:19.623Z,100421.17
2022-09-12T08:51:23.007Z,100420.36
2022-09-12T08:56:31.464Z,100425.17
2022-09-12T09:01:40.470Z,100426.48
2022-09-12T09:07:14.552Z,100427.47
2022-09-12T09:12:38.242Z,100430.16
2022-09-12T09:17:50.178Z,100429.71
2022-09-12T09:23:15.485Z,100433.42
2022-09-12T09:28:25.974Z,100431.24
2022-09-12T09:33:34.230Z,100431.40
2022-09-12T09:38:59.943Z,100432.22
2022-09-12T09:44:02.900Z,100435.91
2022-09-12T09:49:05.821Z,100437.80
2022-09-12T09:54:25.689Z,100444.98
2022-09-12T09:59:31.322Z,100450.31
2022-09-12T10:04:41.062Z,100454.09
2022-09-12T10:10:06.166Z,100459.27
2022-09-12T10:15:27.972Z,100467.96
2022-09-12T10:20:40.542Z,100469.40
2022-09-12T10:25:48.156Z,100476.79
2022-09-12T10:30:56.187Z,100480.48
2022-09-12T10:35:59.265Z,100478.87
2022-09-12T10:41:10.329Z,100485.34
2022-09-12T10:46:16.411Z,100491.52
2022-09-12T10:51:25.204Z,100491.55
2022-09-12T10:56:47.749Z,100495.88
2022-09-12T11:02:01.726Z,100495.67
2022-09-12T11:07:41.929Z,100496.40
2022-09-12T11:13:04.682Z,100503.34
2022-09-12T11:18:27.104Z,100507.16
2022-09-12T11:24:22.031Z,100502.52
2022-09-12T11:29:51.102Z,100504.33
2022-09-12T11:35:10.391Z,100512.80
2022-09-12T11:40:37.622Z,100512.42
2022-09-12T11:45:45.291Z,100509.64
2022-09-12T11:50:48.082Z,100509.50
2022-09-12T11:55:58.012Z,100509.05
2022-09-12T12:01:42.146Z,100510.55
2022-09-12T12:07:12.097Z,100516.16
2022-09-12T12:12:20.792Z,100509.34
2022-09-12T12:17:24.917Z,100511.73
2022-09-12T12:22:27.824Z,100513.83
2022-09-12T12:27:51.281Z,100516.52
2022-09-12T12:33:15.944Z,100514.84
2022-09-12T12:38:36.257Z,100516.00
2022-09-12T12:43:38.982Z,100518.84
2022-09-12T12:48:52.995Z,100518.47
2022-09-12T12:53:55.783Z,100518.62
2022-09-12T12:59:05.464Z,100525.07
2022-09-12T13:04:16.002Z,100526.57
2022-09-12T13:09:30.928Z,100527.58
2022-09-12T13:14:54.487Z,100525.52
2022-09-12T13:20:27.740Z,100528.45
2022-09-12T13:25:34.706Z,100528.69
2022-09-12T13:30:58.649Z,100531.01
2022-09-12T13:36:32.532Z,100530.51
2022-09-12T13:42:22.063Z,100532.02
2022-09-12T13:47:29.579Z,100533.50
2022-09-12T13:52:34.598Z,100532.00
2022-09-12T13:57:39.588Z,100530.92
2022-09-12T14:02:42.375Z,100532.98
2022-09-12T14:07:53.386Z,100533.91
2022-09-12T14:12:57.327Z,100539.09
2022-09-12T14:18:03.454Z,100537.55
2022-09-12T14:23:30.266Z,100535.80
2022-09-12T14:28:34.406Z,100536.20
2022-09-12T14:33:54.305Z,100537.62
2022-09-12T14:39:01.701Z,100536.13
2022-09-12T14:44:16.778Z,100534.45
2022-09-12T14:49:33.566Z,100536.23
2022-09-12T14:54:37.919Z,100541.11
2022-09-12T14:59:40.765Z,100543.90
2022-09-12T15:04:49.150Z,100547.63
2022-09-12T15:09:52.390Z,100547.27
2022-09-12T15:15:22.867Z,100547.98
2022-09-12T15:20:26.128Z,100555.09
2022-09-12T15:25:28.821Z,100552.44
2022-09-12T15:30:31.453Z,100548.71
2022-09-12T15:35:34.173Z,100554.54
2022-09-12T15:40:36.922Z,100558.48
2022-09-12T15:45:41.480Z,100559.03
2022-09-12T15:50:44.272Z,100565.35
2022-09-12T15:55:46.978Z,100564.23
2022-09-12T16:00:49.630Z,100567.32
2022-09-12T16:06:01.553Z,100565.21
2022-09-12T16:11:07.673Z,100564.98
2022-09-12T16:16:10.766Z,100564.11
2022-09-12T16:21:15.433Z,100563.06
2022-09-12T16:26:18.674Z,100565.62
2022-09-12T16:31:21.660Z,100566.36
2022-09-12T16:36:24.411Z,100564.77
2022-09-12T16:41:27.187Z,100558.97
2022-09-12T16:46:30.061Z,100562.14
2022-09-12T16:51:35.985Z,100564.45
2022-09-12T16:56:38.694Z,100564.54
2022-09-12T17:01:41.434Z,100562.66
2022-09-12T17:06:45.256Z,100562.23
2022-09-12T17:11:49.635Z,100561.47
2022-09-12T17:16:52.559Z,100565.13
2022-09-12T17:21:56.888Z,100566.14
2022-09-12T17:26:59.595Z,100567.33
2022-09-12T17:32:03.291Z,100572.96
2022-09-12T17:37:05.980Z,100583.69
2022-09-12T17:42:08.637Z,100576.88
2022-09-12T17:47:11.616Z,100569.02
2022-09-12T17:52:14.260Z,100577.25
2022-09-12T17:57:17.018Z,100575.36
2022-09-12T18:02:19.815Z,100574.44
2022-09-12T18:07:22.503Z,100571.72
2022-09-12T18:12:25.154Z,100574.92
2022-09-12T18:17:27.922Z,100568.58
2022-09-12T18:22:30.585Z,100565.55
2022-09-12T18:27:33.285Z,100572.09
2022-09-12T18:32:36.166Z,100574.16
2022-09-12T18:37:41.038Z,100574.17
2022-09-12T18:42:43.760Z,100574.86
2022-09-12T18:47:46.655Z,100577.77
2022-09-12T18:52:56.637Z,100576.98
2022-09-12T18:58:01.762Z,100574.36
2022-09-12T19:03:04.453Z,100567.02
2022-09-12T19:08:07.141Z,100564.16
2022-09-12T19:13:09.934Z,100562.29
2022-09-12T19:18:13.204Z,100564.13
2022-09-12T19:23:15.885Z,100573.05
2022-09-12T19:28:18.615Z,100575.98
2022-09-12T19:33:21.724Z,100572.57
2022-09-12T19:38:24.649Z,100569.76
2022-09-12T19:43:27.387Z,100571.05
2022-09-12T19:48:30.661Z,100562.96
2022-09-12T19:53:33.771Z,100558.70
2022-09-12T19:58:41.217Z,100559.73
2022-09-12T20:03:44.269Z,100562.21
2022-09-12T20:08:47.088Z,100568.81
2022-09-12T20:13:50.699Z,100559.43
2022-09-12T20:19:08.511Z,100557.05
2022-09-12T20:24:13.455Z,100550.62
2022-09-12T20:29:16.863Z,100548.46
2022-09-12T20:34:20.926Z,100554.30
2022-09-12T20:39:23.726Z,100559.91
2022-09-12T20:44:26.511Z,100562.33
2022-09-12T20:49:29.193Z,100555.30
2022-09-12T20:54:32.420Z,100555.52
2022-09-12T20:59:35.233Z,100562.30
2022-09-12T21:04:37.931Z,100561.23
2022-09-12T21:09:40.617Z,100558.83
2022-09-12T21:14:43.369Z,100553.23
2022-09-12T21:19:46.088Z,100549.67
2022-09-12T21:24:48.793Z,100549.80
2022-09-12T21:29:51.528Z,100548.85
2022-09-12T21:34:54.189Z,100551.31
2022-09-12T21:39:59.048Z,100554.86
2022-09-12T21:45:01.692Z,100557.73
2022-09-12T21:50:06.861Z,100549.29
2022-09-12T21:55:10.111Z,100548.70
2022-09-12T22:00:16.542Z,100542.31
2022-09-12T22:05:21.361Z,100539.93
2022-09-12T22:10:25.140Z,100542.13
2022-09-12T22:15:43.069Z,100536.48
2022-09-12T22:20:45.939Z,100537.52
2022-09-12T22:25:48.572Z,100535.18
2022-09-12T22:30:51.883Z,100530.59
2022-09-12T22:35:54.587Z,100524.27
2022-09-12T22:40:59.204Z,100528.16
2022-09-12T22:46:02.029Z,100528.00
2022-09-12T22:51:05.314Z,100525.64
2022-09-12T22:56:08.408Z,100528.84
2022-09-12T23:01:11.641Z,100525.41
2022-09-12T23:06:14.419Z,100518.49
2022-09-12T23:11:19.227Z,100522.46
2022-09-12T23:16:24.886Z,100519.67
2022-09-12T23:21:29.970Z,100519.20
2022-09-12T23:26:32.679Z,100517.68
2022-09-12T23:31:35.372Z,100509.73
2022-09-12T23:36:38.231Z,100508.06
2022-09-12T23:41:40.924Z,100499.71
2022-09-12T23:46:43.562Z,100492.30
2022-09-12T23:51:46.277Z,100486.35
2022-09-12T23:56:49.259Z,100485.55
